createdAt,value
2018-02-20T00:00:56.807Z,41.80
2018-02-20T00:01:56.724Z,40.50
2018-02-20T00:02:56.618Z,39.30
2018-02-20T00:03:56.543Z,37.90
2018-02-20T00:04:56.468Z,39.70
2018-02-20T00:05:56.397Z,38.50
2018-02-20T00:06:56.278Z,38.20
2018-02-20T00:07:56.214Z,39.10
2018-02-20T00:08:56.126Z,38.70
2018-02-20T00:09:56.059Z,39.60
2018-02-20T00:10:55.962Z,40.70
2018-02-20T00:11:56.025Z,42.40
2018-02-20T00:12:55.797Z,41.20
2018-02-20T00:13:55.719Z,40.50
2018-02-20T00:14:55.631Z,41.50
2018-02-20T00:15:55.567Z,39.00
2018-02-20T00:16:55.451Z,37.10
2018-02-20T00:17:55.385Z,37.30
2018-02-20T00:18:55.291Z,39.90
2018-02-20T00:19:55.288Z,39.30
2018-02-20T00:20:55.124Z,40.10
2018-02-20T00:21:55.054Z,39.10
2018-02-20T00:22:54.957Z,38.10
2018-02-20T00:23:54.886Z,40.00
2018-02-20T00:24:54.796Z,40.70
2018-02-20T00:25:54.745Z,40.20
2018-02-20T00:26:54.631Z,36.90
2018-02-20T00:27:54.548Z,39.50
2018-02-20T00:28:54.475Z,37.70
2018-02-20T00:29:54.384Z,39.70
2018-02-20T00:30:54.313Z,40.30
2018-02-20T00:31:54.228Z,43.90
2018-02-20T00:32:54.124Z,41.50
2018-02-20T00:33:54.058Z,41.60
2018-02-20T00:34:53.961Z,40.30
2018-02-20T00:35:53.905Z,43.10
2018-02-20T00:36:53.815Z,43.70
2018-02-20T00:37:53.721Z,42.40
2018-02-20T00:38:53.625Z,41.60
2018-02-20T00:39:53.558Z,41.80
2018-02-20T00:40:53.482Z,39.90
2018-02-20T00:41:53.470Z,41.60
2018-02-20T00:42:53.289Z,41.60
2018-02-20T00:43:53.236Z,43.20
2018-02-20T00:44:53.129Z,43.70
2018-02-20T00:45:53.062Z,43.60
2018-02-20T00:46:52.978Z,43.60
2018-02-20T00:47:52.899Z,42.70
2018-02-20T00:48:52.804Z,42.50
2018-02-20T00:49:52.728Z,43.10
2018-02-20T00:50:52.632Z,43.40
2018-02-20T00:51:52.582Z,42.00
2018-02-20T00:52:52.471Z,40.40
2018-02-20T00:53:52.393Z,43.30
2018-02-20T00:54:52.308Z,39.40
2018-02-20T00:55:52.226Z,42.70
2018-02-20T00:56:52.167Z,39.90
2018-02-20T00:57:52.068Z,42.70
2018-02-20T00:58:51.976Z,43.20
2018-02-20T00:59:51.887Z,41.70
2018-02-20T01:00:51.797Z,42.40
2018-02-20T01:01:51.797Z,44.20
2018-02-20T01:02:51.630Z,37.70
2018-02-20T01:03:51.552Z,38.90
2018-02-20T01:04:51.464Z,40.10
2018-02-20T01:05:51.390Z,40.50
2018-02-20T01:06:51.326Z,39.80
2018-02-20T01:07:51.221Z,41.80
2018-02-20T01:08:51.130Z,42.20
2018-02-20T01:09:51.067Z,42.70
2018-02-20T01:10:50.962Z,42.80
2018-02-20T01:11:50.905Z,41.40
2018-02-20T01:12:50.794Z,42.10
2018-02-20T01:13:50.752Z,42.60
2018-02-20T01:14:50.639Z,39.40
2018-02-20T01:15:50.550Z,40.60
2018-02-20T01:16:50.471Z,40.10
2018-02-20T01:17:50.412Z,42.20
2018-02-20T01:18:50.327Z,41.20
2018-02-20T01:19:50.218Z,40.40
2018-02-20T01:20:50.151Z,41.70
2018-02-20T01:21:50.054Z,39.50
2018-02-20T01:22:50.004Z,43.40
2018-02-20T01:23:49.894Z,38.00
2018-02-20T01:24:49.790Z,42.40
2018-02-20T01:25:49.738Z,40.00
2018-02-20T01:26:49.622Z,39.90
2018-02-20T01:27:49.573Z,41.70
2018-02-20T01:28:49.462Z,40.90
2018-02-20T01:29:49.399Z,37.80
2018-02-20T01:30:49.302Z,38.90
2018-02-20T01:31:49.224Z,38.80
2018-02-20T01:32:49.150Z,40.60
2018-02-20T01:33:49.051Z,39.50
2018-02-20T01:34:48.961Z,41.30
2018-02-20T01:35:48.887Z,38.00
2018-02-20T01:36:48.792Z,37.60
2018-02-20T01:37:48.737Z,37.10
2018-02-20T01:38:48.641Z,39.70
2018-02-20T01:39:48.549Z,38.10
2018-02-20T01:40:48.452Z,37.00
2018-02-20T01:41:48.385Z,35.30
2018-02-20T01:42:48.288Z,37.10
2018-02-20T01:43:48.235Z,37.40
2018-02-20T01:44:48.114Z,39.40
2018-02-20T01:45:48.052Z,38.10
2018-02-20T01:46:47.954Z,39.50
2018-02-20T01:47:47.881Z,37.50
2018-02-20T01:48:47.818Z,37.30
2018-02-20T01:49:47.719Z,39.80
2018-02-20T01:50:47.631Z,38.90
2018-02-20T01:51:47.611Z,45.10
2018-02-20T01:52:47.466Z,41.30
2018-02-20T01:53:47.410Z,40.00
2018-02-20T01:54:47.310Z,41.10
2018-02-20T01:55:47.220Z,40.40
2018-02-20T01:56:47.122Z,41.70
2018-02-20T01:57:47.049Z,43.00
2018-02-20T01:58:46.974Z,43.50
2018-02-20T01:59:46.881Z,40.80
2018-02-20T02:00:46.783Z,40.30
2018-02-20T02:01:46.710Z,38.70
2018-02-20T02:02:46.621Z,40.80
2018-02-20T02:03:46.564Z,44.40
2018-02-20T02:04:46.458Z,43.90
2018-02-20T02:05:46.396Z,41.30
2018-02-20T02:06:46.278Z,45.30
2018-02-20T02:07:46.206Z,44.00
2018-02-20T02:08:46.117Z,43.40
2018-02-20T02:09:46.058Z,46.20
2018-02-20T02:10:45.950Z,44.90
2018-02-20T02:11:45.877Z,41.70
2018-02-20T02:12:45.780Z,46.00
2018-02-20T02:13:45.708Z,42.00
2018-02-20T02:14:45.642Z,42.80
2018-02-20T02:15:45.554Z,42.50
2018-02-20T02:16:45.465Z,44.30
2018-02-20T02:17:45.382Z,40.80
2018-02-20T02:18:45.277Z,45.00
2018-02-20T02:19:45.224Z,44.40
2018-02-20T02:20:45.113Z,43.40
2018-02-20T02:21:45.162Z,42.10
2018-02-20T02:22:44.948Z,42.70
2018-02-20T02:23:44.878Z,41.90
2018-02-20T02:24:44.798Z,41.70
2018-02-20T02:25:44.723Z,46.00
2018-02-20T02:26:44.611Z,43.00
2018-02-20T02:27:44.540Z,44.30
2018-02-20T02:28:44.450Z,44.00
2018-02-20T02:29:44.371Z,45.00
2018-02-20T02:30:44.289Z,44.00
2018-02-20T02:31:44.210Z,43.00
2018-02-20T02:32:44.117Z,45.70
2018-02-20T02:33:44.034Z,43.20
2018-02-20T02:34:43.935Z,42.60
2018-02-20T02:35:43.883Z,41.20
2018-02-20T02:36:43.774Z,42.50
2018-02-20T02:37:43.701Z,44.80
2018-02-20T02:38:43.603Z,41.50
2018-02-20T02:39:43.529Z,38.40
2018-02-20T02:40:43.460Z,41.40
2018-02-20T02:41:43.380Z,38.80
2018-02-20T02:42:43.275Z,40.60
2018-02-20T02:43:43.201Z,40.40
2018-02-20T02:44:43.098Z,38.20
2018-02-20T02:45:43.044Z,41.10
2018-02-20T02:46:42.934Z,41.70
2018-02-20T02:47:42.880Z,41.10
2018-02-20T02:48:42.762Z,39.80
2018-02-20T02:49:42.692Z,43.00
2018-02-20T02:50:42.616Z,42.20
2018-02-20T02:51:42.595Z,42.40
2018-02-20T02:52:42.441Z,41.80
2018-02-20T02:53:42.355Z,38.50
2018-02-20T02:54:42.267Z,43.00
2018-02-20T02:55:42.184Z,44.40
2018-02-20T02:56:42.104Z,42.20
2018-02-20T02:57:42.026Z,42.30
2018-02-20T02:58:41.924Z,42.50
2018-02-20T02:59:41.848Z,39.60
2018-02-20T03:00:41.764Z,42.30
2018-02-20T03:01:41.714Z,42.40
2018-02-20T03:02:41.590Z,44.30
2018-02-20T03:03:41.520Z,39.00
2018-02-20T03:04:41.423Z,42.00
2018-02-20T03:05:41.350Z,40.40
2018-02-20T03:06:41.271Z,44.70
2018-02-20T03:07:41.204Z,41.30
2018-02-20T03:08:41.088Z,42.30
2018-02-20T03:09:41.016Z,41.70
2018-02-20T03:10:40.924Z,41.30
2018-02-20T03:11:40.906Z,39.60
2018-02-20T03:12:40.783Z,39.90
2018-02-20T03:13:40.675Z,39.40
2018-02-20T03:14:40.682Z,42.80
2018-02-20T03:15:40.514Z,44.20
2018-02-20T03:16:40.427Z,41.10
2018-02-20T03:17:40.344Z,40.90
2018-02-20T03:18:40.264Z,39.00
2018-02-20T03:19:40.176Z,39.20
2018-02-20T03:20:40.081Z,41.00
2018-02-20T03:21:40.013Z,43.50
2018-02-20T03:22:39.931Z,42.40
2018-02-20T03:23:39.840Z,44.80
2018-02-20T03:24:39.750Z,40.60
2018-02-20T03:25:39.687Z,42.40
2018-02-20T03:26:39.578Z,43.00
2018-02-20T03:27:39.526Z,39.40
2018-02-20T03:28:39.415Z,42.80
2018-02-20T03:29:39.354Z,42.10
2018-02-20T03:30:39.245Z,41.60
2018-02-20T03:31:39.205Z,43.00
2018-02-20T03:32:39.098Z,41.70
2018-02-20T03:33:39.002Z,43.30
2018-02-20T03:34:38.905Z,41.30
2018-02-20T03:35:38.827Z,41.30
2018-02-20T03:36:38.736Z,40.50
2018-02-20T03:37:38.684Z,41.00
2018-02-20T03:38:38.566Z,40.80
2018-02-20T03:39:38.505Z,42.90
2018-02-20T03:40:38.410Z,40.10
2018-02-20T03:41:38.320Z,41.80
2018-02-20T03:42:38.259Z,39.40
2018-02-20T03:43:38.165Z,43.10
2018-02-20T03:44:38.688Z,41.00
2018-02-20T03:45:38.006Z,43.00
2018-02-20T03:46:37.903Z,41.70
2018-02-20T03:47:37.827Z,41.30
2018-02-20T03:48:37.751Z,41.00
2018-02-20T03:49:37.658Z,41.40
2018-02-20T03:50:37.583Z,40.30
2018-02-20T03:51:37.492Z,43.70
2018-02-20T03:52:37.401Z,43.80
2018-02-20T03:53:37.342Z,42.60
2018-02-20T03:54:37.235Z,44.20
2018-02-20T03:55:37.145Z,44.40
2018-02-20T03:56:37.073Z,43.50
2018-02-20T03:57:36.992Z,44.10
2018-02-20T03:58:36.903Z,41.00
2018-02-20T03:59:36.820Z,44.30
2018-02-20T04:00:36.735Z,45.20
2018-02-20T04:01:36.662Z,40.80
2018-02-20T04:02:36.555Z,43.10
2018-02-20T04:03:36.502Z,40.80
2018-02-20T04:04:36.502Z,42.40
2018-02-20T04:05:36.312Z,41.20
2018-02-20T04:06:36.220Z,41.70
2018-02-20T04:07:36.135Z,40.40
2018-02-20T04:08:36.044Z,40.10
2018-02-20T04:09:36.018Z,41.00
2018-02-20T04:10:35.881Z,39.40
2018-02-20T04:11:35.812Z,40.50
2018-02-20T04:12:35.714Z,38.50
2018-02-20T04:13:35.640Z,39.00
2018-02-20T04:14:35.569Z,38.00
2018-02-20T04:15:35.485Z,38.50
2018-02-20T04:16:35.379Z,39.80
2018-02-20T04:17:35.313Z,38.90
2018-02-20T04:18:35.220Z,38.60
2018-02-20T04:19:35.159Z,38.60
2018-02-20T04:20:35.041Z,42.00
2018-02-20T04:21:34.974Z,40.10
2018-02-20T04:22:34.884Z,40.00
2018-02-20T04:23:34.802Z,38.30
2018-02-20T04:24:34.732Z,38.40
2018-02-20T04:25:34.631Z,39.20
2018-02-20T04:26:34.544Z,39.80
2018-02-20T04:27:34.466Z,40.80
2018-02-20T04:28:34.383Z,42.90
2018-02-20T04:29:34.327Z,40.00
2018-02-20T04:30:34.252Z,41.40
2018-02-20T04:31:34.127Z,42.80
2018-02-20T04:32:34.038Z,41.50
2018-02-20T04:33:33.972Z,43.60
2018-02-20T04:34:33.888Z,42.50
2018-02-20T04:35:33.819Z,44.50
2018-02-20T04:36:33.710Z,41.80
2018-02-20T04:37:33.645Z,43.80
2018-02-20T04:38:33.531Z,41.80
2018-02-20T04:39:33.459Z,43.00
2018-02-20T04:40:33.386Z,41.70
2018-02-20T04:41:33.292Z,45.70
2018-02-20T04:42:33.195Z,41.10
2018-02-20T04:43:33.123Z,40.50
2018-02-20T04:44:33.031Z,41.30
2018-02-20T04:45:32.984Z,40.70
2018-02-20T04:46:32.864Z,39.60
2018-02-20T04:47:32.793Z,40.40
2018-02-20T04:48:32.699Z,43.20
2018-02-20T04:49:32.623Z,44.60
2018-02-20T04:50:32.540Z,44.30
2018-02-20T04:51:32.497Z,43.80
2018-02-20T04:52:32.357Z,44.10
2018-02-20T04:53:32.288Z,43.90
2018-02-20T04:54:32.240Z,43.10
2018-02-20T04:55:32.123Z,46.50
2018-02-20T04:56:32.041Z,43.30
2018-02-20T04:57:31.948Z,43.90
2018-02-20T04:58:31.864Z,46.70
2018-02-20T04:59:31.783Z,46.40
2018-02-20T05:00:31.692Z,48.00
2018-02-20T05:01:31.644Z,44.00
2018-02-20T05:02:31.517Z,47.50
2018-02-20T05:03:31.450Z,45.00
2018-02-20T05:04:31.456Z,44.70
2018-02-20T05:05:31.282Z,44.00
2018-02-20T05:06:31.195Z,46.70
2018-02-20T05:07:31.207Z,44.90
2018-02-20T05:08:31.011Z,47.00
2018-02-20T05:09:30.949Z,45.10
2018-02-20T05:10:30.846Z,43.70
2018-02-20T05:11:30.794Z,40.70
2018-02-20T05:12:30.704Z,42.60
2018-02-20T05:13:30.610Z,42.20
2018-02-20T05:14:30.509Z,42.50
2018-02-20T05:15:30.437Z,43.10
2018-02-20T05:16:30.358Z,41.90
2018-02-20T05:17:30.280Z,43.90
2018-02-20T05:18:30.170Z,49.50
2018-02-20T05:19:30.092Z,47.90
2018-02-20T05:20:29.999Z,42.60
2018-02-20T05:21:29.925Z,43.20
2018-02-20T05:22:29.953Z,49.50
2018-02-20T05:23:29.808Z,47.60
2018-02-20T05:24:29.667Z,45.90
2018-02-20T05:25:29.616Z,47.50
2018-02-20T05:26:29.498Z,48.90
2018-02-20T05:27:29.580Z,48.90
2018-02-20T05:28:29.363Z,49.00
2018-02-20T05:29:29.336Z,47.70
2018-02-20T05:30:29.163Z,52.20
2018-02-20T05:31:29.157Z,49.00
2018-02-20T05:32:29.019Z,46.00
2018-02-20T05:33:28.955Z,45.70
2018-02-20T05:34:28.822Z,54.60
2018-02-20T05:35:28.773Z,51.00
2018-02-20T05:36:28.654Z,48.20
2018-02-20T05:37:28.699Z,49.90
2018-02-20T05:38:28.476Z,49.40
2018-02-20T05:39:28.483Z,48.40
2018-02-20T05:40:28.315Z,47.00
2018-02-20T05:41:28.293Z,47.10
2018-02-20T05:42:28.164Z,49.70
2018-02-20T05:43:28.131Z,45.60
2018-02-20T05:44:28.004Z,42.90
2018-02-20T05:45:27.898Z,43.00
2018-02-20T05:46:27.806Z,43.40
2018-02-20T05:47:27.728Z,47.10
2018-02-20T05:48:27.665Z,43.30
2018-02-20T05:49:27.564Z,41.60
2018-02-20T05:50:27.478Z,46.60
2018-02-20T05:51:27.439Z,45.80
2018-02-20T05:52:27.299Z,49.20
2018-02-20T05:53:27.283Z,49.10
2018-02-20T05:54:27.149Z,47.60
2018-02-20T05:55:27.064Z,48.00
2018-02-20T05:56:26.967Z,47.60
2018-02-20T05:57:26.903Z,47.40
2018-02-20T05:58:26.792Z,46.10
2018-02-20T05:59:26.757Z,47.40
2018-02-20T06:00:26.631Z,47.70
2018-02-20T06:01:26.554Z,52.40
2018-02-20T06:02:26.554Z,50.80
2018-02-20T06:03:26.389Z,52.30
2018-02-20T06:04:26.301Z,51.40
2018-02-20T06:05:26.214Z,53.80
2018-02-20T06:06:26.127Z,48.60
2018-02-20T06:07:26.053Z,48.20
2018-02-20T06:08:25.958Z,49.20
2018-02-20T06:09:26.902Z,50.80
2018-02-20T06:10:25.785Z,51.30
2018-02-20T06:11:25.731Z,51.20
2018-02-20T06:12:25.622Z,52.30
2018-02-20T06:13:25.544Z,51.60
2018-02-20T06:14:25.501Z,53.30
2018-02-20T06:15:25.379Z,55.70
2018-02-20T06:16:25.289Z,52.80
2018-02-20T06:17:25.196Z,51.10
2018-02-20T06:18:25.117Z,51.90
2018-02-20T06:19:25.070Z,51.90
2018-02-20T06:20:24.950Z,51.60
2018-02-20T06:21:24.876Z,53.30
2018-02-20T06:22:24.800Z,51.10
2018-02-20T06:23:24.702Z,49.50
2018-02-20T06:24:24.605Z,47.70
2018-02-20T06:25:24.545Z,50.20
2018-02-20T06:26:24.434Z,48.30
2018-02-20T06:27:24.386Z,50.90
2018-02-20T06:28:24.266Z,52.50
2018-02-20T06:29:24.196Z,52.70
2018-02-20T06:30:24.108Z,54.00
2018-02-20T06:31:24.022Z,51.90
2018-02-20T06:32:23.922Z,48.60
2018-02-20T06:33:23.852Z,55.20
2018-02-20T06:34:23.751Z,54.40
2018-02-20T06:35:23.707Z,54.30
2018-02-20T06:36:23.601Z,54.00
2018-02-20T06:37:23.512Z,55.10
2018-02-20T06:38:23.420Z,55.00
2018-02-20T06:39:23.356Z,55.50
2018-02-20T06:40:23.263Z,57.40
2018-02-20T06:41:23.198Z,60.30
2018-02-20T06:42:23.084Z,55.00
2018-02-20T06:43:23.007Z,54.50
2018-02-20T06:44:23.017Z,54.60
2018-02-20T06:45:22.860Z,55.80
2018-02-20T06:46:22.743Z,56.20
2018-02-20T06:47:22.666Z,52.70
2018-02-20T06:48:22.573Z,54.40
2018-02-20T06:49:22.494Z,54.60
2018-02-20T06:50:22.425Z,52.00
2018-02-20T06:51:22.329Z,53.00
2018-02-20T06:52:22.252Z,51.70
2018-02-20T06:55:04.126Z,53.70
2018-02-20T06:56:04.057Z,55.80
2018-02-20T06:57:03.978Z,60.80
2018-02-20T06:58:03.881Z,57.00
2018-02-20T06:59:03.806Z,56.30
2018-02-20T07:00:03.716Z,56.60
2018-02-20T07:01:03.644Z,53.60
2018-02-20T07:02:03.568Z,56.90
2018-02-20T07:03:03.458Z,54.70
2018-02-20T07:04:03.379Z,53.60
2018-02-20T07:05:04.202Z,53.50
2018-02-20T07:06:03.202Z,50.50
2018-02-20T07:07:03.141Z,53.70
2018-02-20T07:08:03.095Z,57.00
2018-02-20T07:09:02.947Z,57.00
2018-02-20T07:10:02.868Z,58.40
2018-02-20T07:11:02.804Z,57.60
2018-02-20T07:12:02.723Z,57.70
2018-02-20T07:13:02.608Z,53.70
2018-02-20T07:14:02.530Z,56.10
2018-02-20T07:15:02.440Z,55.60
2018-02-20T07:16:02.357Z,55.40
2018-02-20T07:17:02.306Z,53.30
2018-02-20T07:18:02.219Z,56.30
2018-02-20T07:19:02.116Z,56.90
2018-02-20T07:20:02.025Z,54.60
2018-02-20T07:21:01.928Z,55.50
2018-02-20T07:22:01.903Z,56.30
2018-02-20T07:23:01.755Z,54.40
2018-02-20T07:24:01.702Z,56.80
2018-02-20T07:25:01.598Z,56.80
2018-02-20T07:26:01.531Z,56.90
2018-02-20T07:27:01.428Z,53.90
2018-02-20T07:28:01.417Z,52.80
2018-02-20T07:29:01.249Z,53.40
2018-02-20T07:30:01.195Z,54.70
2018-02-20T07:31:01.082Z,52.10
2018-02-20T07:32:01.008Z,53.60
2018-02-20T07:33:00.916Z,53.00
2018-02-20T07:34:00.837Z,48.40
2018-02-20T07:35:00.847Z,48.70
2018-02-20T07:36:00.692Z,50.50
2018-02-20T07:37:00.602Z,49.20
2018-02-20T07:38:00.607Z,49.10
2018-02-20T07:39:00.410Z,50.10
2018-02-20T07:40:00.371Z,52.20
2018-02-20T07:41:00.246Z,47.40
2018-02-20T07:42:00.162Z,47.60
2018-02-20T07:43:00.091Z,48.30
2018-02-20T07:44:00.007Z,50.80
2018-02-20T07:44:59.922Z,46.50
2018-02-20T07:45:59.838Z,48.00
2018-02-20T07:46:59.744Z,47.90
2018-02-20T07:47:59.705Z,48.40
2018-02-20T07:48:59.566Z,44.50
2018-02-20T07:49:59.516Z,46.00
2018-02-20T07:50:59.413Z,50.20
2018-02-20T07:51:59.341Z,51.40
2018-02-20T07:52:59.232Z,52.60
2018-02-20T07:53:59.180Z,47.90
2018-02-20T07:54:59.077Z,49.20
2018-02-20T07:55:59.037Z,49.80
2018-02-20T07:56:58.908Z,51.80
2018-02-20T07:57:58.824Z,55.00
2018-02-20T07:58:58.729Z,49.50
2018-02-20T07:59:58.681Z,50.90
2018-02-20T08:00:58.576Z,53.10
2018-02-20T08:01:58.516Z,48.90
2018-02-20T08:02:58.412Z,53.40
2018-02-20T08:03:58.327Z,52.20
2018-02-20T08:04:58.228Z,49.70
2018-02-20T08:05:58.171Z,46.80
2018-02-20T08:06:58.067Z,47.80
2018-02-20T08:07:57.990Z,50.90
2018-02-20T08:08:57.897Z,47.70
2018-02-20T08:09:57.852Z,46.10
2018-02-20T08:10:57.763Z,44.90
2018-02-20T08:11:57.718Z,48.30
2018-02-20T08:12:57.562Z,46.00
2018-02-20T08:13:57.491Z,44.80
2018-02-20T08:14:57.528Z,49.60
2018-02-20T08:15:57.345Z,46.20
2018-02-20T08:16:57.276Z,48.40
2018-02-20T08:17:57.159Z,45.20
2018-02-20T08:18:57.073Z,50.70
2018-02-20T08:19:56.997Z,49.40
2018-02-20T08:20:56.931Z,50.70
2018-02-20T08:21:56.840Z,53.10
2018-02-20T08:22:56.761Z,49.30
2018-02-20T08:23:56.668Z,47.60
2018-02-20T08:24:56.603Z,51.10
2018-02-20T08:25:56.533Z,48.70
2018-02-20T08:26:56.418Z,47.90
2018-02-20T08:27:56.470Z,47.70
2018-02-20T08:28:56.255Z,46.70
2018-02-20T08:29:56.205Z,45.50
2018-02-20T08:30:56.113Z,43.40
2018-02-20T08:31:56.014Z,53.50
2018-02-20T08:32:55.925Z,48.40
2018-02-20T08:33:55.855Z,46.20
2018-02-20T08:34:55.780Z,45.70
2018-02-20T08:35:55.711Z,46.20
2018-02-20T08:36:55.616Z,45.10
2018-02-20T08:37:55.557Z,49.70
2018-02-20T08:38:55.442Z,43.50
2018-02-20T08:39:55.379Z,44.20
2018-02-20T08:40:55.281Z,42.90
2018-02-20T08:41:55.208Z,45.40
2018-02-20T08:42:55.157Z,46.10
2018-02-20T08:43:55.050Z,41.00
2018-02-20T08:44:54.963Z,43.60
2018-02-20T08:45:54.890Z,42.30
2018-02-20T08:46:54.800Z,43.30
2018-02-20T08:47:54.749Z,43.50
2018-02-20T08:48:54.654Z,43.40
2018-02-20T08:49:54.567Z,41.40
2018-02-20T08:50:54.479Z,41.50
2018-02-20T08:51:54.409Z,43.90
2018-02-20T08:52:54.322Z,46.20
2018-02-20T08:53:54.264Z,41.70
2018-02-20T08:54:54.164Z,51.80
2018-02-20T08:55:54.100Z,42.90
2018-02-20T08:56:53.992Z,42.40
2018-02-20T08:57:53.932Z,40.20
2018-02-20T08:58:53.903Z,40.90
2018-02-20T08:59:53.765Z,41.90
2018-02-20T09:00:53.676Z,44.20
2018-02-20T09:01:53.617Z,43.70
2018-02-20T09:02:53.535Z,40.70
2018-02-20T09:03:53.580Z,42.10
2018-02-20T09:04:53.391Z,41.20
2018-02-20T09:05:53.458Z,42.80
2018-02-20T09:06:53.207Z,44.20
2018-02-20T09:07:53.202Z,43.60
2018-02-20T09:08:53.082Z,43.50
2018-02-20T09:09:53.040Z,42.00
2018-02-20T09:10:52.899Z,42.90
2018-02-20T09:11:52.919Z,39.70
2018-02-20T09:12:52.736Z,44.90
2018-02-20T09:13:52.724Z,43.50
2018-02-20T09:14:52.596Z,42.40
2018-02-20T09:15:52.530Z,41.80
2018-02-20T09:16:52.421Z,44.50
2018-02-20T09:17:52.446Z,42.70
2018-02-20T09:18:52.265Z,43.80
2018-02-20T09:19:52.303Z,45.00
2018-02-20T09:20:52.099Z,47.70
2018-02-20T09:21:52.108Z,56.00
2018-02-20T09:22:51.942Z,45.10
2018-02-20T09:23:51.982Z,51.10
2018-02-20T09:24:51.808Z,44.80
2018-02-20T09:25:51.786Z,67.70
2018-02-20T09:26:51.711Z,41.70
2018-02-20T09:27:51.618Z,49.80
2018-02-20T09:28:51.482Z,49.50
2018-02-20T09:29:52.231Z,43.00
2018-02-20T09:30:51.313Z,47.00
2018-02-20T09:31:51.405Z,43.90
2018-02-20T09:32:51.160Z,44.10
2018-02-20T09:33:51.104Z,41.20
2018-02-20T09:34:51.038Z,39.50
2018-02-20T09:35:51.034Z,41.20
2018-02-20T09:36:50.843Z,42.20
2018-02-20T09:37:50.856Z,46.90
2018-02-20T09:38:50.689Z,42.40
2018-02-20T09:39:50.675Z,42.30
2018-02-20T09:40:50.556Z,43.10
2018-02-20T09:41:50.471Z,40.40
2018-02-20T09:42:50.371Z,45.50
2018-02-20T09:43:50.365Z,43.20
2018-02-20T09:44:50.221Z,46.10
2018-02-20T09:45:50.206Z,43.70
2018-02-20T09:46:50.076Z,43.60
2018-02-20T09:47:50.076Z,42.00
2018-02-20T09:48:49.908Z,42.20
2018-02-20T09:49:49.908Z,42.90
2018-02-20T09:50:49.770Z,46.70
2018-02-20T09:51:49.820Z,41.80
2018-02-20T09:52:49.593Z,44.10
2018-02-20T09:53:49.611Z,43.10
2018-02-20T09:54:49.454Z,42.50
2018-02-20T09:55:49.447Z,45.70
2018-02-20T09:56:49.311Z,45.10
2018-02-20T09:57:49.327Z,43.30
2018-02-20T09:58:49.125Z,43.90
2018-02-20T09:59:49.135Z,42.90
2018-02-20T10:00:48.975Z,44.20
2018-02-20T10:01:48.973Z,43.30
2018-02-20T10:02:48.878Z,46.90
2018-02-20T10:03:48.868Z,43.30
2018-02-20T10:04:48.673Z,46.80
2018-02-20T10:05:49.237Z,44.20
2018-02-20T10:06:48.537Z,43.40
2018-02-20T10:07:48.482Z,43.30
2018-02-20T10:08:48.367Z,45.70
2018-02-20T10:11:30.695Z,45.20
2018-02-20T10:12:30.728Z,44.20
2018-02-20T10:13:30.503Z,44.10
2018-02-20T10:14:30.596Z,44.40
2018-02-20T10:15:30.355Z,45.80
2018-02-20T10:16:30.421Z,44.50
2018-02-20T10:17:30.230Z,47.10
2018-02-20T10:18:30.211Z,43.50
2018-02-20T10:19:30.041Z,44.00
2018-02-20T10:20:30.029Z,47.20
2018-02-20T10:21:29.894Z,43.00
2018-02-20T10:22:29.873Z,42.70
2018-02-20T10:23:29.761Z,43.60
2018-02-20T10:24:29.754Z,43.90
2018-02-20T10:25:29.590Z,43.00
2018-02-20T10:26:29.561Z,44.10
2018-02-20T10:27:29.432Z,43.00
2018-02-20T10:28:29.496Z,42.90
2018-02-20T10:29:29.283Z,42.40
2018-02-20T10:30:29.693Z,43.10
2018-02-20T10:31:29.145Z,40.80
2018-02-20T10:34:11.181Z,41.60
2018-02-20T10:35:11.184Z,41.00
2018-02-20T10:36:11.019Z,39.40
2018-02-20T10:37:10.997Z,41.10
2018-02-20T10:38:10.868Z,41.90
2018-02-20T10:39:10.924Z,40.80
2018-02-20T10:40:10.732Z,40.50
2018-02-20T10:41:10.718Z,41.20
2018-02-20T10:42:10.559Z,41.50
2018-02-20T10:43:10.521Z,41.80
2018-02-20T10:44:10.432Z,41.40
2018-02-20T10:45:10.425Z,42.00
2018-02-20T10:46:10.261Z,42.70
2018-02-20T10:47:10.235Z,41.00
2018-02-20T10:48:10.172Z,42.00
2018-02-20T10:49:10.083Z,41.60
2018-02-20T10:50:09.946Z,40.40
2018-02-20T10:51:09.990Z,40.20
2018-02-20T10:52:09.811Z,41.20
2018-02-20T10:53:09.758Z,40.10
2018-02-20T10:54:09.671Z,42.10
2018-02-20T10:55:09.669Z,41.10
2018-02-20T10:56:09.493Z,41.70
2018-02-20T10:57:09.483Z,42.40
2018-02-20T10:58:09.350Z,42.70
2018-02-20T10:59:09.477Z,44.20
2018-02-20T11:00:09.220Z,42.00
2018-02-20T11:01:09.209Z,43.90
2018-02-20T11:02:09.040Z,42.60
2018-02-20T11:03:09.004Z,42.00
2018-02-20T11:04:08.930Z,42.30
2018-02-20T11:05:08.972Z,44.40
2018-02-20T11:06:08.740Z,44.70
2018-02-20T11:07:08.800Z,43.00
2018-02-20T11:08:08.577Z,44.80
2018-02-20T11:09:08.648Z,44.70
2018-02-20T11:10:08.460Z,46.30
2018-02-20T11:11:08.454Z,45.20
2018-02-20T11:12:08.292Z,44.70
2018-02-20T11:13:08.267Z,44.60
2018-02-20T11:14:08.132Z,45.50
2018-02-20T11:15:08.167Z,43.70
2018-02-20T11:16:08.014Z,44.00
2018-02-20T11:17:07.975Z,45.40
2018-02-20T11:18:07.827Z,43.70
2018-02-20T11:19:07.780Z,43.20
2018-02-20T11:20:07.674Z,45.20
2018-02-20T11:21:07.736Z,45.00
2018-02-20T11:22:07.543Z,45.30
2018-02-20T11:23:07.501Z,44.40
2018-02-20T11:24:07.380Z,45.20
2018-02-20T11:25:07.424Z,45.00
2018-02-20T11:26:07.244Z,45.80
2018-02-20T11:27:07.218Z,46.30
2018-02-20T11:28:07.081Z,45.90
2018-02-20T11:29:07.031Z,45.60
2018-02-20T11:30:07.023Z,46.80
2018-02-20T11:31:06.995Z,46.30
2018-02-20T11:32:06.766Z,45.60
2018-02-20T11:33:06.861Z,46.00
2018-02-20T11:34:06.617Z,46.20
2018-02-20T11:35:06.667Z,46.30
2018-02-20T11:36:06.609Z,46.70
2018-02-20T11:37:06.469Z,44.50
2018-02-20T11:38:06.321Z,46.00
2018-02-20T11:39:06.289Z,47.10
2018-02-20T11:40:06.174Z,47.20
2018-02-20T11:41:06.215Z,47.10
2018-02-20T11:42:06.005Z,45.70
2018-02-20T11:43:06.000Z,47.00
2018-02-20T11:44:05.869Z,47.00
2018-02-20T11:45:05.906Z,45.60
2018-02-20T11:46:05.733Z,45.20
2018-02-20T11:47:05.717Z,44.50
2018-02-20T11:48:05.545Z,45.10
2018-02-20T11:49:05.575Z,46.10
2018-02-20T11:50:05.634Z,44.50
2018-02-20T11:51:05.598Z,47.50
2018-02-20T11:52:05.272Z,48.80
2018-02-20T11:53:05.242Z,47.90
2018-02-20T11:54:05.113Z,47.60
2018-02-20T11:55:05.056Z,48.20
2018-02-20T11:56:04.936Z,48.30
2018-02-20T11:57:05.219Z,46.80
2018-02-20T11:58:04.817Z,47.30
2018-02-20T11:59:04.768Z,48.20
2018-02-20T12:00:04.633Z,45.60
2018-02-20T12:01:04.615Z,47.80
2018-02-20T12:02:04.506Z,46.40
2018-02-20T12:03:04.579Z,46.30
2018-02-20T12:04:04.339Z,46.80
2018-02-20T12:05:04.298Z,46.40
2018-02-20T12:06:04.188Z,45.60
2018-02-20T12:07:04.249Z,46.60
2018-02-20T12:08:04.032Z,46.10
2018-02-20T12:09:04.054Z,45.00
2018-02-20T12:10:03.870Z,45.70
2018-02-20T12:11:03.858Z,46.30
2018-02-20T12:12:03.782Z,45.50
2018-02-20T12:13:03.745Z,45.70
2018-02-20T12:14:03.589Z,46.30
2018-02-20T12:16:45.710Z,44.80
2018-02-20T12:17:45.759Z,45.30
2018-02-20T12:18:45.581Z,44.40
2018-02-20T12:19:45.551Z,46.20
2018-02-20T12:20:45.406Z,46.40
2018-02-20T12:21:45.554Z,46.20
2018-02-20T12:22:45.391Z,46.30
2018-02-20T12:23:45.407Z,45.50
2018-02-20T12:24:45.297Z,43.50
2018-02-20T12:25:45.224Z,45.10
2018-02-20T12:26:45.203Z,44.30
2018-02-20T12:27:45.293Z,45.10
2018-02-20T12:28:45.057Z,45.30
2018-02-20T12:29:44.987Z,45.20
2018-02-20T12:30:44.824Z,44.60
2018-02-20T12:31:44.825Z,42.90
2018-02-20T12:32:44.611Z,44.40
2018-02-20T12:33:44.744Z,44.60
2018-02-20T12:34:44.410Z,47.20
2018-02-20T12:35:44.543Z,44.00
2018-02-20T12:36:44.344Z,43.30
2018-02-20T12:37:44.426Z,42.70
2018-02-20T12:38:44.151Z,45.20
2018-02-20T12:39:44.136Z,41.20
2018-02-20T12:40:44.013Z,45.00
2018-02-20T12:41:44.028Z,41.80
2018-02-20T12:42:43.846Z,40.50
2018-02-20T12:43:44.005Z,41.80
2018-02-20T12:44:43.731Z,41.90
2018-02-20T12:47:37.348Z,43.00
2018-02-20T12:48:37.507Z,41.90
2018-02-20T12:49:37.209Z,41.50
2018-02-20T12:50:37.270Z,41.00
2018-02-20T12:51:36.998Z,42.20
2018-02-20T12:52:37.021Z,43.90
2018-02-20T12:53:36.873Z,42.40
2018-02-20T12:54:36.947Z,43.20
2018-02-20T12:55:36.749Z,44.40
2018-02-20T12:56:36.670Z,43.20
2018-02-20T12:57:36.630Z,44.40
2018-02-20T12:58:36.595Z,42.30
2018-02-20T12:59:36.425Z,41.20
2018-02-20T13:00:36.497Z,42.70